createdAt,value
2023-02-17T00:00:55.467Z,15.40
2023-02-17T00:03:24.915Z,15.00
2023-02-17T00:05:53.230Z,13.40
2023-02-17T00:08:21.187Z,13.40
2023-02-17T00:10:58.747Z,16.60
2023-02-17T00:13:26.999Z,12.80
2023-02-17T00:15:55.043Z,15.20
2023-02-17T00:18:24.422Z,14.60
2023-02-17T00:20:52.413Z,9.80
2023-02-17T00:23:20.344Z,13.40
2023-02-17T00:25:48.265Z,14.60
2023-02-17T00:28:16.531Z,9.00
2023-02-17T00:30:44.505Z,11.60
2023-02-17T00:33:12.471Z,15.20
2023-02-17T00:35:42.694Z,12.60
2023-02-17T00:38:10.619Z,10.80
2023-02-17T00:40:39.007Z,12.00
2023-02-17T00:43:07.262Z,10.00
2023-02-17T00:45:35.267Z,12.00
2023-02-17T00:48:03.183Z,10.00
2023-02-17T00:50:31.125Z,13.00
2023-02-17T00:53:00.710Z,13.00
2023-02-17T00:55:28.599Z,9.60
2023-02-17T00:57:56.771Z,9.40
2023-02-17T01:00:24.968Z,12.60
2023-02-17T01:02:52.927Z,18.60
2023-02-17T01:05:20.931Z,17.40
2023-02-17T01:07:48.979Z,20.40
2023-02-17T01:10:19.701Z,10.80
2023-02-17T01:12:47.762Z,21.40
2023-02-17T01:15:15.722Z,21.00
2023-02-17T01:17:43.686Z,31.40
2023-02-17T01:20:12.132Z,49.75
2023-02-17T01:22:40.838Z,25.40
2023-02-17T01:25:09.047Z,51.50
2023-02-17T01:27:38.644Z,56.80
2023-02-17T01:30:07.678Z,34.20
2023-02-17T01:32:35.625Z,53.00
2023-02-17T01:35:03.698Z,37.20
2023-02-17T01:37:33.433Z,30.80
2023-02-17T01:40:01.452Z,29.00
2023-02-17T01:42:29.334Z,40.40
2023-02-17T01:45:39.984Z,35.60
2023-02-17T01:48:11.235Z,32.40
2023-02-17T01:50:41.977Z,38.20
2023-02-17T01:53:10.340Z,37.60
2023-02-17T01:55:38.621Z,60.25
2023-02-17T01:58:06.621Z,73.00
2023-02-17T02:00:34.781Z,44.00
2023-02-17T02:03:03.100Z,66.00
2023-02-17T02:05:32.529Z,65.25
2023-02-17T02:08:00.470Z,68.25
2023-02-17T02:10:28.345Z,55.50
2023-02-17T02:12:56.240Z,41.20
2023-02-17T02:15:24.881Z,42.00
2023-02-17T02:18:01.495Z,43.80
2023-02-17T02:21:02.597Z,48.00
2023-02-17T02:24:00.809Z,44.60
2023-02-17T02:27:04.021Z,46.00
2023-02-17T02:29:55.785Z,60.75
2023-02-17T02:32:40.767Z,41.00
2023-02-17T02:35:10.303Z,41.20
2023-02-17T02:37:40.775Z,54.00
2023-02-17T02:40:09.758Z,40.20
2023-02-17T02:42:37.672Z,41.60
2023-02-17T02:45:07.127Z,43.00
2023-02-17T02:47:47.871Z,41.00
2023-02-17T02:50:17.579Z,76.50
2023-02-17T02:52:50.364Z,67.00
2023-02-17T02:55:20.420Z,66.67
2023-02-17T02:57:51.459Z,63.00
2023-02-17T03:00:21.812Z,76.75
2023-02-17T03:02:53.436Z,49.25
2023-02-17T03:05:25.869Z,46.00
2023-02-17T03:07:56.658Z,52.00
2023-02-17T03:10:24.825Z,54.75
2023-02-17T03:12:52.694Z,62.25
2023-02-17T03:15:22.369Z,50.50
2023-02-17T03:17:51.905Z,46.00
2023-02-17T03:20:19.962Z,51.00
2023-02-17T03:22:48.336Z,52.25
2023-02-17T03:25:16.421Z,52.25
2023-02-17T03:27:44.460Z,55.50
2023-02-17T03:30:14.325Z,61.25
2023-02-17T03:32:43.872Z,47.00
2023-02-17T03:35:13.254Z,60.50
2023-02-17T03:37:41.160Z,51.25
2023-02-17T03:40:09.819Z,56.25
2023-02-17T03:42:37.744Z,56.50
2023-02-17T03:45:06.244Z,55.25
2023-02-17T03:47:34.593Z,43.00
2023-02-17T03:50:02.668Z,58.75
2023-02-17T03:52:31.944Z,49.50
2023-02-17T03:54:59.844Z,57.50
2023-02-17T03:57:27.779Z,41.50
2023-02-17T03:59:55.721Z,40.00
2023-02-17T04:02:24.026Z,59.25
2023-02-17T04:04:51.916Z,58.50
2023-02-17T04:07:19.826Z,58.25
2023-02-17T04:09:49.297Z,59.75
2023-02-17T04:12:17.180Z,40.25
2023-02-17T04:14:45.056Z,40.50
2023-02-17T04:17:12.937Z,44.50
2023-02-17T04:19:41.109Z,40.50
2023-02-17T04:22:09.088Z,40.50
2023-02-17T04:24:37.332Z,34.50
2023-02-17T04:27:06.807Z,24.60
2023-02-17T04:29:35.023Z,21.40
2023-02-17T04:32:03.166Z,19.80
2023-02-17T04:34:31.165Z,20.20
2023-02-17T04:36:59.718Z,16.00
2023-02-17T04:39:27.640Z,23.80
2023-02-17T04:41:55.730Z,21.40
2023-02-17T04:44:25.064Z,19.00
2023-02-17T04:46:53.274Z,23.20
2023-02-17T04:49:21.223Z,12.60
2023-02-17T04:51:49.210Z,18.40
2023-02-17T04:54:17.145Z,21.80
2023-02-17T04:56:45.043Z,20.40
2023-02-17T04:59:13.343Z,15.40
2023-02-17T05:01:42.748Z,20.60
2023-02-17T05:04:10.691Z,22.00
2023-02-17T05:06:38.632Z,16.20
2023-02-17T05:09:06.544Z,9.00
2023-02-17T05:11:34.501Z,14.60
2023-02-17T05:14:02.544Z,17.40
2023-02-17T05:16:30.434Z,19.60
2023-02-17T05:18:59.748Z,17.20
2023-02-17T05:21:28.143Z,14.20
2023-02-17T05:23:56.066Z,15.00
2023-02-17T05:26:23.909Z,19.00
2023-02-17T05:28:52.210Z,13.60
2023-02-17T05:31:20.271Z,13.60
2023-02-17T05:33:48.241Z,16.60
2023-02-17T05:36:17.893Z,7.00
2023-02-17T05:38:49.174Z,15.00
2023-02-17T05:41:17.153Z,16.20
2023-02-17T05:43:45.320Z,13.00
2023-02-17T05:46:13.253Z,14.00
2023-02-17T05:48:41.391Z,14.80
2023-02-17T05:51:09.943Z,14.00
2023-02-17T05:53:39.183Z,10.60
2023-02-17T05:56:08.167Z,12.00
2023-02-17T05:58:36.288Z,15.40
2023-02-17T06:01:08.317Z,13.20
2023-02-17T06:03:36.264Z,15.40
2023-02-17T06:06:04.881Z,14.00
2023-02-17T06:08:33.072Z,14.20
2023-02-17T06:11:02.375Z,14.00
2023-02-17T06:13:30.801Z,11.80
2023-02-17T06:15:59.095Z,11.20
2023-02-17T06:18:27.006Z,15.20
2023-02-17T06:20:56.138Z,12.00
2023-02-17T06:23:24.569Z,10.40
2023-02-17T06:25:52.465Z,15.60
2023-02-17T06:28:22.006Z,14.60
2023-02-17T06:30:50.278Z,12.40
2023-02-17T06:33:18.216Z,15.00
2023-02-17T06:35:49.613Z,10.00
2023-02-17T06:38:17.904Z,12.80
2023-02-17T06:40:45.846Z,6.40
2023-02-17T06:43:13.721Z,13.40
2023-02-17T06:45:43.093Z,12.40
2023-02-17T06:48:10.971Z,14.80
2023-02-17T06:50:39.253Z,13.00
2023-02-17T06:53:07.999Z,10.80
2023-02-17T06:55:37.394Z,10.00
2023-02-17T06:58:05.360Z,8.80
2023-02-17T07:00:33.278Z,9.60
2023-02-17T07:03:02.807Z,13.00
2023-02-17T07:05:30.844Z,10.00
2023-02-17T07:07:58.850Z,8.60
2023-02-17T07:10:26.850Z,13.00
2023-02-17T07:12:55.068Z,9.00
2023-02-17T07:15:22.975Z,8.20
2023-02-17T07:17:51.002Z,12.00
2023-02-17T07:20:20.467Z,9.20
2023-02-17T07:22:48.418Z,10.40
2023-02-17T07:25:16.399Z,6.60
2023-02-17T07:27:44.641Z,9.00
2023-02-17T07:30:13.363Z,9.20
2023-02-17T07:32:41.333Z,8.60
2023-02-17T07:35:09.475Z,10.00
2023-02-17T07:37:38.802Z,4.00
2023-02-17T07:40:08.246Z,9.00
2023-02-17T07:42:36.481Z,10.40
2023-02-17T07:45:04.679Z,6.40
2023-02-17T07:47:33.599Z,9.00
2023-02-17T07:50:01.512Z,5.20
2023-02-17T07:52:29.418Z,7.40
2023-02-17T07:54:58.721Z,3.60
2023-02-17T07:57:26.794Z,9.00
2023-02-17T07:59:54.982Z,9.00
2023-02-17T08:02:23.033Z,10.00
2023-02-17T08:04:51.160Z,6.80
2023-02-17T08:07:19.293Z,12.00
2023-02-17T08:10:10.204Z,8.80
2023-02-17T08:12:58.056Z,10.00
2023-02-17T08:15:26.108Z,13.00
2023-02-17T08:17:54.087Z,7.00
2023-02-17T08:20:21.957Z,9.00
2023-02-17T08:22:49.799Z,9.00
2023-02-17T08:25:19.032Z,8.20
2023-02-17T08:27:48.413Z,6.00
2023-02-17T08:30:16.708Z,9.80
2023-02-17T08:32:47.447Z,3.40
2023-02-17T08:35:15.521Z,9.00
2023-02-17T08:37:43.421Z,10.00
2023-02-17T08:40:11.646Z,7.00
2023-02-17T08:42:39.920Z,6.20
2023-02-17T08:45:09.500Z,4.80
2023-02-17T08:47:37.645Z,10.20
2023-02-17T08:50:06.376Z,10.20
2023-02-17T08:52:35.558Z,9.00
2023-02-17T08:55:03.529Z,10.20
2023-02-17T08:57:31.434Z,7.00
2023-02-17T08:59:59.672Z,9.80
2023-02-17T09:02:28.952Z,10.00
2023-02-17T09:04:56.992Z,10.00
2023-02-17T09:07:25.191Z,10.00
2023-02-17T09:09:53.150Z,9.60
2023-02-17T09:12:21.097Z,7.40
2023-02-17T09:14:49.128Z,7.80
2023-02-17T09:17:17.084Z,12.00
2023-02-17T09:19:46.489Z,10.00
2023-02-17T09:22:30.543Z,9.20
2023-02-17T09:24:59.544Z,6.00
2023-02-17T09:27:27.929Z,9.20
2023-02-17T09:29:56.014Z,7.40
2023-02-17T09:32:24.156Z,9.60
2023-02-17T09:34:54.359Z,9.00
2023-02-17T09:37:23.116Z,9.40
2023-02-17T09:39:51.067Z,7.00
2023-02-17T09:42:20.203Z,10.00
2023-02-17T09:44:49.933Z,8.20
2023-02-17T09:47:20.375Z,9.80
2023-02-17T09:49:49.650Z,10.20
2023-02-17T09:52:21.448Z,9.40
2023-02-17T09:54:54.710Z,7.40
2023-02-17T09:57:23.279Z,4.00
2023-02-17T09:59:53.421Z,10.00
2023-02-17T10:02:26.354Z,8.20
2023-02-17T10:04:54.368Z,9.40
2023-02-17T10:07:26.916Z,8.20
2023-02-17T10:09:56.600Z,6.00
2023-02-17T10:12:26.068Z,9.00
2023-02-17T10:14:56.711Z,7.00
2023-02-17T10:17:28.149Z,5.60
2023-02-17T10:19:58.194Z,7.80
2023-02-17T10:22:27.843Z,9.20
2023-02-17T10:24:55.767Z,6.00
2023-02-17T10:27:31.469Z,8.60
2023-02-17T10:30:06.354Z,6.00
2023-02-17T10:32:49.573Z,8.20
2023-02-17T10:35:18.270Z,1.40
2023-02-17T10:37:50.898Z,7.00
2023-02-17T10:40:21.461Z,7.00
2023-02-17T10:42:50.864Z,6.00
2023-02-17T10:45:25.317Z,6.00
2023-02-17T10:47:54.585Z,4.40
2023-02-17T10:50:23.249Z,4.00
2023-02-17T10:53:00.124Z,5.60
2023-02-17T10:55:38.045Z,6.00
2023-02-17T10:58:11.415Z,6.00
2023-02-17T11:00:47.737Z,6.00
2023-02-17T11:03:22.346Z,6.00
2023-02-17T11:05:55.234Z,6.00
2023-02-17T11:08:31.512Z,6.80
2023-02-17T11:11:04.664Z,4.00
2023-02-17T11:13:35.490Z,4.00
2023-02-17T11:16:03.473Z,4.80
2023-02-17T11:18:33.523Z,4.00
2023-02-17T11:21:03.092Z,6.00
2023-02-17T11:23:32.576Z,6.00
2023-02-17T11:26:03.045Z,7.00
2023-02-17T11:28:31.365Z,7.00
2023-02-17T11:31:00.406Z,3.00
2023-02-17T11:33:31.890Z,5.20
2023-02-17T11:35:59.892Z,6.60
2023-02-17T11:38:28.484Z,6.80
2023-02-17T11:40:59.358Z,5.60
2023-02-17T11:43:28.626Z,6.00
2023-02-17T11:46:02.052Z,6.00
2023-02-17T11:48:45.797Z,4.00
2023-02-17T11:51:15.966Z,5.60
2023-02-17T11:53:50.440Z,1.00
2023-02-17T11:56:20.625Z,5.20
2023-02-17T11:59:19.920Z,6.00
2023-02-17T12:02:03.204Z,3.40
2023-02-17T12:04:31.319Z,4.80
2023-02-17T12:07:30.139Z,6.00
2023-02-17T12:10:02.830Z,3.25
2023-02-17T12:12:52.458Z,2.50
2023-02-17T12:15:35.843Z,3.50
2023-02-17T12:18:10.074Z,1.00
2023-02-17T12:20:45.644Z,4.00
2023-02-17T12:23:31.251Z,4.00
2023-02-17T12:26:07.349Z,6.00
2023-02-17T12:28:53.970Z,3.50
2023-02-17T12:31:28.872Z,3.75
2023-02-17T12:33:59.186Z,3.00
2023-02-17T12:36:30.222Z,2.50
2023-02-17T12:39:00.169Z,3.80
2023-02-17T12:41:28.699Z,3.25
2023-02-17T12:44:07.235Z,3.80
2023-02-17T12:46:43.848Z,3.00
2023-02-17T12:49:15.813Z,3.75
2023-02-17T12:51:45.684Z,1.00
2023-02-17T12:54:16.785Z,0.40
2023-02-17T12:56:57.043Z,3.50
2023-02-17T12:59:28.675Z,3.00
2023-02-17T13:01:58.748Z,3.00
2023-02-17T13:04:26.702Z,3.00
2023-02-17T13:06:59.117Z,3.00
2023-02-17T13:09:31.155Z,2.50
2023-02-17T13:12:10.147Z,3.20
2023-02-17T13:14:47.057Z,3.80
2023-02-17T13:17:27.054Z,3.40
2023-02-17T13:20:07.352Z,2.60
2023-02-17T13:22:35.276Z,3.00
2023-02-17T13:25:03.256Z,3.00
2023-02-17T13:27:35.217Z,3.00
2023-02-17T13:30:05.584Z,3.80
2023-02-17T13:32:34.402Z,3.40
2023-02-17T13:35:06.083Z,3.40
2023-02-17T13:37:42.416Z,4.00
2023-02-17T13:40:35.591Z,4.00
2023-02-17T13:43:10.317Z,3.00
2023-02-17T13:45:42.588Z,3.50
2023-02-17T13:48:15.911Z,2.60
2023-02-17T13:50:47.843Z,4.00
2023-02-17T13:53:24.584Z,1.80
2023-02-17T13:55:52.742Z,3.60
2023-02-17T13:58:24.358Z,3.00
2023-02-17T14:00:53.870Z,1.00
2023-02-17T14:03:23.142Z,3.20
2023-02-17T14:05:52.267Z,3.00
2023-02-17T14:08:24.297Z,4.00
2023-02-17T14:10:52.975Z,5.60
2023-02-17T14:13:21.276Z,3.80
2023-02-17T14:15:55.227Z,4.00
2023-02-17T14:18:30.365Z,1.00
2023-02-17T14:21:06.070Z,3.40
2023-02-17T14:23:48.090Z,1.40
2023-02-17T14:26:28.525Z,3.00
2023-02-17T14:28:57.618Z,4.00
2023-02-17T14:31:27.082Z,4.00
2023-02-17T14:33:56.607Z,2.60
2023-02-17T14:36:33.153Z,5.20
2023-02-17T14:39:01.252Z,6.00
2023-02-17T14:41:29.352Z,5.20
2023-02-17T14:43:57.607Z,16.20
2023-02-17T14:46:27.088Z,4.40
2023-02-17T14:48:55.170Z,4.80
2023-02-17T14:51:24.201Z,3.80
2023-02-17T14:53:52.454Z,1.80
2023-02-17T14:56:24.249Z,6.20
2023-02-17T14:58:53.136Z,0.00
2023-02-17T15:01:21.805Z,6.40
2023-02-17T15:03:52.524Z,6.00
2023-02-17T15:06:22.251Z,6.00
2023-02-17T15:08:50.390Z,3.00
2023-02-17T15:11:20.727Z,6.60
2023-02-17T15:13:48.767Z,5.60
2023-02-17T15:16:17.415Z,3.00
2023-02-17T15:18:45.417Z,0.40
2023-02-17T15:21:21.171Z,4.00
2023-02-17T15:23:49.553Z,4.00
2023-02-17T15:26:17.743Z,3.20
2023-02-17T15:28:45.741Z,4.40
2023-02-17T15:31:15.604Z,3.80
2023-02-17T15:33:43.829Z,4.40
2023-02-17T15:36:13.811Z,4.00
2023-02-17T15:38:43.533Z,4.00
2023-02-17T15:41:15.693Z,4.80
2023-02-17T15:43:43.734Z,4.00
2023-02-17T15:46:13.483Z,4.00
2023-02-17T15:48:41.511Z,4.00
2023-02-17T15:51:12.213Z,5.20
2023-02-17T15:53:40.629Z,5.20
2023-02-17T15:56:13.720Z,8.60
2023-02-17T15:58:41.727Z,4.80
2023-02-17T16:01:13.918Z,4.00
2023-02-17T16:03:41.902Z,4.00
2023-02-17T16:06:09.909Z,4.00
2023-02-17T16:08:39.954Z,4.80
2023-02-17T16:11:10.652Z,4.00
2023-02-17T16:13:40.629Z,5.20
2023-02-17T16:16:10.739Z,4.00
2023-02-17T16:18:38.736Z,4.80
2023-02-17T16:21:07.626Z,3.00
2023-02-17T16:23:36.092Z,3.00
2023-02-17T16:26:04.311Z,3.20
2023-02-17T16:28:32.713Z,3.20
2023-02-17T16:31:02.121Z,3.00
2023-02-17T16:33:30.112Z,3.00
2023-02-17T16:35:58.124Z,3.00
2023-02-17T16:38:26.118Z,3.40
2023-02-17T16:40:54.906Z,4.00
2023-02-17T16:43:24.052Z,3.80
2023-02-17T16:45:53.773Z,4.00
2023-02-17T16:48:23.974Z,4.00
2023-02-17T16:50:52.133Z,4.00
2023-02-17T16:53:20.165Z,4.00
2023-02-17T16:55:48.167Z,7.00
2023-02-17T16:58:17.068Z,4.00
2023-02-17T17:00:45.215Z,4.00
2023-02-17T17:03:13.237Z,4.00
2023-02-17T17:05:43.396Z,4.00
2023-02-17T17:08:14.312Z,4.00
2023-02-17T17:10:42.240Z,3.80
2023-02-17T17:13:10.685Z,4.00
2023-02-17T17:15:38.725Z,4.00
2023-02-17T17:18:08.776Z,6.20
2023-02-17T17:20:37.506Z,7.00
2023-02-17T17:23:08.251Z,3.20
2023-02-17T17:25:36.816Z,3.60
2023-02-17T17:28:13.698Z,6.00
2023-02-17T17:30:42.186Z,3.80
2023-02-17T17:33:10.127Z,1.00
2023-02-17T17:35:38.231Z,6.40
2023-02-17T17:38:08.222Z,5.60
2023-02-17T17:40:48.461Z,6.00
2023-02-17T17:43:16.985Z,3.80
2023-02-17T17:45:45.270Z,7.00
2023-02-17T17:48:14.168Z,6.40
2023-02-17T17:50:42.262Z,4.00
2023-02-17T17:53:11.979Z,6.00
2023-02-17T17:55:39.948Z,5.20
2023-02-17T17:58:07.944Z,7.40
2023-02-17T18:00:36.260Z,6.20
2023-02-17T18:03:05.167Z,7.20
2023-02-17T18:05:33.188Z,6.40
2023-02-17T18:08:01.573Z,4.00
2023-02-17T18:10:30.922Z,3.00
2023-02-17T18:12:58.895Z,6.20
2023-02-17T18:15:26.874Z,6.00
2023-02-17T18:17:54.899Z,7.00
2023-02-17T18:20:23.024Z,11.60
2023-02-17T18:22:51.297Z,6.00
2023-02-17T18:25:19.404Z,6.00
2023-02-17T18:27:48.864Z,7.80
2023-02-17T18:30:17.934Z,8.20
2023-02-17T18:32:46.017Z,2.60
2023-02-17T18:35:14.049Z,7.00
2023-02-17T18:37:42.010Z,10.00
2023-02-17T18:40:12.574Z,7.80
2023-02-17T18:42:40.550Z,9.00
2023-02-17T18:45:10.779Z,6.40
2023-02-17T18:47:38.964Z,9.40
2023-02-17T18:50:08.123Z,7.00
2023-02-17T18:52:37.303Z,6.00
2023-02-17T18:55:05.490Z,9.00
2023-02-17T18:57:33.447Z,9.60
2023-02-17T19:00:01.478Z,8.60
2023-02-17T19:02:31.206Z,8.20
2023-02-17T19:04:59.158Z,7.80
2023-02-17T19:07:27.086Z,8.60
2023-02-17T19:09:55.023Z,6.20
2023-02-17T19:12:22.875Z,3.80
2023-02-17T19:14:55.656Z,6.20
2023-02-17T19:17:24.007Z,8.60
2023-02-17T19:19:53.408Z,10.00
2023-02-17T19:22:21.392Z,9.80
2023-02-17T19:24:51.488Z,9.20
2023-02-17T19:27:19.453Z,3.00
2023-02-17T19:29:47.486Z,7.00
2023-02-17T19:32:15.788Z,9.60
2023-02-17T19:34:43.769Z,4.80
2023-02-17T19:37:13.162Z,10.00
2023-02-17T19:39:41.087Z,9.20
2023-02-17T19:42:09.235Z,11.80
2023-02-17T19:44:37.408Z,12.40
2023-02-17T19:47:05.334Z,9.20
2023-02-17T19:49:33.324Z,7.40
2023-02-17T19:52:01.605Z,12.00
2023-02-17T19:54:30.891Z,13.00
2023-02-17T19:56:58.836Z,12.20
2023-02-17T19:59:27.075Z,10.00
2023-02-17T20:01:55.015Z,6.20
2023-02-17T20:04:23.002Z,7.00
2023-02-17T20:06:52.293Z,9.00
2023-02-17T20:09:21.041Z,7.00
2023-02-17T20:11:52.949Z,9.80
2023-02-17T20:14:21.362Z,11.20
2023-02-17T20:16:49.959Z,11.20
2023-02-17T20:19:17.969Z,10.00
2023-02-17T20:21:46.219Z,8.60
2023-02-17T20:24:15.186Z,9.20
2023-02-17T20:26:44.384Z,6.60
2023-02-17T20:29:13.843Z,9.60
2023-02-17T20:31:41.979Z,9.00
2023-02-17T20:34:15.735Z,8.60
2023-02-17T20:36:43.614Z,7.00
2023-02-17T20:39:12.161Z,9.60
2023-02-17T20:41:40.341Z,9.00
2023-02-17T20:44:08.263Z,10.00
2023-02-17T20:46:37.566Z,7.00
2023-02-17T20:49:05.507Z,9.00
2023-02-17T20:51:33.435Z,3.80
2023-02-17T20:54:01.366Z,9.00
2023-02-17T20:56:33.778Z,7.00
2023-02-17T20:59:01.743Z,9.00
2023-02-17T21:01:29.793Z,7.40
2023-02-17T21:03:59.048Z,8.20
2023-02-17T21:06:28.418Z,9.60
2023-02-17T21:08:57.434Z,8.00
2023-02-17T21:11:25.588Z,10.00
2023-02-17T21:13:53.851Z,9.60
2023-02-17T21:16:27.259Z,9.40
2023-02-17T21:18:55.297Z,6.00
2023-02-17T21:21:24.668Z,7.40
2023-02-17T21:23:53.166Z,7.00
2023-02-17T21:26:21.777Z,10.00
2023-02-17T21:28:50.049Z,3.60
2023-02-17T21:31:18.139Z,10.00
2023-02-17T21:33:46.196Z,10.00
2023-02-17T21:36:14.980Z,12.40
2023-02-17T21:38:44.376Z,9.00
2023-02-17T21:41:13.560Z,9.00
2023-02-17T21:43:59.180Z,7.80
2023-02-17T21:46:27.400Z,9.00
2023-02-17T21:48:56.245Z,9.00
2023-02-17T21:51:24.154Z,9.00
2023-02-17T21:53:53.828Z,9.40
2023-02-17T21:56:22.386Z,11.60
2023-02-17T21:58:51.586Z,9.60
2023-02-17T22:01:19.789Z,6.60
2023-02-17T22:03:50.747Z,6.00
2023-02-17T22:06:20.987Z,9.20
2023-02-17T22:08:48.916Z,10.60
2023-02-17T22:11:19.567Z,9.00
2023-02-17T22:13:47.640Z,7.40
2023-02-17T22:16:16.055Z,10.00
2023-02-17T22:18:43.993Z,7.80
2023-02-17T22:21:12.642Z,11.60
2023-02-17T22:23:40.969Z,13.00
2023-02-17T22:26:09.626Z,10.00
2023-02-17T22:28:39.169Z,9.20
2023-02-17T22:31:07.393Z,7.80
2023-02-17T22:33:35.437Z,9.20
2023-02-17T22:36:05.170Z,8.80
2023-02-17T22:38:34.595Z,9.80
2023-02-17T22:41:06.027Z,10.40
2023-02-17T22:43:33.973Z,6.60
2023-02-17T22:46:03.898Z,9.00
2023-02-17T22:48:33.011Z,9.80
2023-02-17T22:51:05.013Z,9.00
2023-02-17T22:53:33.207Z,6.20
2023-02-17T22:56:01.237Z,6.80
2023-02-17T22:58:29.196Z,6.60
2023-02-17T23:01:05.397Z,9.00
2023-02-17T23:03:33.416Z,5.20
2023-02-17T23:06:01.655Z,9.00
2023-02-17T23:08:30.052Z,7.00
2023-02-17T23:10:58.016Z,8.20
2023-02-17T23:13:26.029Z,7.00
2023-02-17T23:15:54.028Z,7.00
2023-02-17T23:18:23.700Z,9.40
2023-02-17T23:20:58.258Z,7.40
2023-02-17T23:23:27.014Z,7.40
2023-02-17T23:25:55.829Z,6.20
2023-02-17T23:28:24.792Z,9.00
2023-02-17T23:30:52.819Z,6.60
2023-02-17T23:33:21.653Z,10.00
2023-02-17T23:35:51.027Z,13.00
2023-02-17T23:38:20.858Z,10.00
2023-02-17T23:40:49.752Z,11.60
2023-02-17T23:43:17.891Z,6.00
2023-02-17T23:45:45.904Z,4.00
2023-02-17T23:48:14.028Z,9.00
2023-02-17T23:50:41.987Z,10.00
2023-02-17T23:53:11.380Z,9.40
2023-02-17T23:55:39.606Z,7.00
2023-02-17T23:58:07.601Z,10.00
